sensor_id;sensor_type;location;lat;lon;timestamp;P1;durP1;ratioP1;P2;durP2;ratioP2
62679;SDS011;68213;40.528;44.712;2023-06-26T00:00:38;10.15;;;4.05;;
62679;SDS011;68213;40.528;44.712;2023-06-26T00:01:39;6.05;;;3.85;;
62679;SDS011;68213;40.528;44.712;2023-06-26T00:02:40;10.77;;;4.28;;
62679;SDS011;68213;40.528;44.712;2023-06-26T00:03:41;8.55;;;4.20;;
62679;SDS011;68213;40.528;44.712;2023-06-26T00:04:42;8.27;;;3.90;;
62679;SDS011;68213;40.528;44.712;2023-06-26T00:05:43;6.13;;;3.95;;
62679;SDS011;68213;40.528;44.712;2023-06-26T00:06:44;10.48;;;3.75;;
62679;SDS011;68213;40.528;44.712;2023-06-26T00:07:45;7.43;;;3.90;;
62679;SDS011;68213;40.528;44.712;2023-06-26T00:08:45;11.95;;;4.82;;
62679;SDS011;68213;40.528;44.712;2023-06-26T00:09:48;7.75;;;4.38;;
62679;SDS011;68213;40.528;44.712;2023-06-26T00:10:49;11.93;;;4.10;;
62679;SDS011;68213;40.528;44.712;2023-06-26T00:11:51;9.63;;;4.72;;
62679;SDS011;68213;40.528;44.712;2023-06-26T00:12:53;8.32;;;4.47;;
62679;SDS011;68213;40.528;44.712;2023-06-26T00:13:54;10.88;;;5.03;;
62679;SDS011;68213;40.528;44.712;2023-06-26T00:14:55;14.55;;;4.80;;
62679;SDS011;68213;40.528;44.712;2023-06-26T00:15:55;14.98;;;5.15;;
62679;SDS011;68213;40.528;44.712;2023-06-26T00:16:56;16.55;;;5.28;;
62679;SDS011;68213;40.528;44.712;2023-06-26T00:17:58;17.98;;;5.15;;
62679;SDS011;68213;40.528;44.712;2023-06-26T00:18:59;18.73;;;4.97;;
62679;SDS011;68213;40.528;44.712;2023-06-26T00:20:00;13.85;;;5.03;;
62679;SDS011;68213;40.528;44.712;2023-06-26T00:21:05;15.40;;;5.50;;
62679;SDS011;68213;40.528;44.712;2023-06-26T00:22:08;16.70;;;5.03;;
62679;SDS011;68213;40.528;44.712;2023-06-26T00:23:10;17.17;;;5.55;;
62679;SDS011;68213;40.528;44.712;2023-06-26T00:24:17;14.63;;;5.57;;
62679;SDS011;68213;40.528;44.712;2023-06-26T00:25:17;20.77;;;5.40;;
62679;SDS011;68213;40.528;44.712;2023-06-26T00:26:19;16.23;;;4.80;;
62679;SDS011;68213;40.528;44.712;2023-06-26T00:27:20;16.38;;;5.05;;
62679;SDS011;68213;40.528;44.712;2023-06-26T00:28:21;21.08;;;5.22;;
62679;SDS011;68213;40.528;44.712;2023-06-26T00:29:21;14.32;;;4.97;;
62679;SDS011;68213;40.528;44.712;2023-06-26T00:30:22;20.67;;;5.85;;
62679;SDS011;68213;40.528;44.712;2023-06-26T00:31:23;16.35;;;5.43;;
62679;SDS011;68213;40.528;44.712;2023-06-26T00:32:23;21.05;;;4.70;;
62679;SDS011;68213;40.528;44.712;2023-06-26T00:33:24;15.40;;;5.22;;
62679;SDS011;68213;40.528;44.712;2023-06-26T00:34:25;18.77;;;5.13;;
62679;SDS011;68213;40.528;44.712;2023-06-26T00:35:26;26.40;;;6.28;;
62679;SDS011;68213;40.528;44.712;2023-06-26T00:36:26;16.77;;;5.57;;
62679;SDS011;68213;40.528;44.712;2023-06-26T00:37:27;17.83;;;5.20;;
62679;SDS011;68213;40.528;44.712;2023-06-26T00:38:28;16.58;;;5.40;;
62679;SDS011;68213;40.528;44.712;2023-06-26T00:39:28;16.08;;;5.25;;
62679;SDS011;68213;40.528;44.712;2023-06-26T00:40:29;16.98;;;5.32;;
62679;SDS011;68213;40.528;44.712;2023-06-26T00:41:30;19.25;;;5.40;;
62679;SDS011;68213;40.528;44.712;2023-06-26T00:42:31;16.27;;;5.88;;
62679;SDS011;68213;40.528;44.712;2023-06-26T00:43:32;16.20;;;5.38;;
62679;SDS011;68213;40.528;44.712;2023-06-26T00:44:32;15.38;;;5.43;;
62679;SDS011;68213;40.528;44.712;2023-06-26T00:45:33;13.38;;;5.07;;
62679;SDS011;68213;40.528;44.712;2023-06-26T00:46:34;17.80;;;5.80;;
62679;SDS011;68213;40.528;44.712;2023-06-26T00:47:35;19.13;;;5.22;;
62679;SDS011;68213;40.528;44.712;2023-06-26T00:48:39;12.25;;;5.40;;
62679;SDS011;68213;40.528;44.712;2023-06-26T00:49:42;14.60;;;5.75;;
62679;SDS011;68213;40.528;44.712;2023-06-26T00:50:44;15.80;;;5.55;;
62679;SDS011;68213;40.528;44.712;2023-06-26T00:51:45;12.45;;;5.30;;
62679;SDS011;68213;40.528;44.712;2023-06-26T00:52:47;15.55;;;5.50;;
62679;SDS011;68213;40.528;44.712;2023-06-26T00:53:48;16.08;;;5.07;;
62679;SDS011;68213;40.528;44.712;2023-06-26T00:54:49;15.15;;;5.10;;
62679;SDS011;68213;40.528;44.712;2023-06-26T00:55:51;10.35;;;4.80;;
62679;SDS011;68213;40.528;44.712;2023-06-26T00:56:52;16.60;;;5.22;;
62679;SDS011;68213;40.528;44.712;2023-06-26T00:57:54;18.40;;;5.38;;
62679;SDS011;68213;40.528;44.712;2023-06-26T00:58:55;15.13;;;5.38;;
62679;SDS011;68213;40.528;44.712;2023-06-26T00:59:56;16.50;;;5.32;;
62679;SDS011;68213;40.528;44.712;2023-06-26T01:00:57;19.02;;;5.63;;
62679;SDS011;68213;40.528;44.712;2023-06-26T01:01:58;14.38;;;5.68;;
62679;SDS011;68213;40.528;44.712;2023-06-26T01:02:59;17.42;;;5.53;;
62679;SDS011;68213;40.528;44.712;2023-06-26T01:03:59;18.17;;;5.07;;
62679;SDS011;68213;40.528;44.712;2023-06-26T01:05:01;15.40;;;5.05;;
62679;SDS011;68213;40.528;44.712;2023-06-26T01:06:03;8.57;;;4.60;;
62679;SDS011;68213;40.528;44.712;2023-06-26T01:07:04;11.90;;;4.90;;
62679;SDS011;68213;40.528;44.712;2023-06-26T01:08:07;12.90;;;4.97;;
62679;SDS011;68213;40.528;44.712;2023-06-26T01:09:09;13.15;;;4.63;;
62679;SDS011;68213;40.528;44.712;2023-06-26T01:10:10;13.32;;;5.20;;
62679;SDS011;68213;40.528;44.712;2023-06-26T01:11:11;10.32;;;4.80;;
62679;SDS011;68213;40.528;44.712;2023-06-26T01:12:13;12.65;;;5.00;;
62679;SDS011;68213;40.528;44.712;2023-06-26T01:13:14;14.13;;;5.38;;
62679;SDS011;68213;40.528;44.712;2023-06-26T01:14:16;20.90;;;5.60;;
62679;SDS011;68213;40.528;44.712;2023-06-26T01:15:17;14.25;;;4.70;;
62679;SDS011;68213;40.528;44.712;2023-06-26T01:16:18;11.88;;;5.07;;
62679;SDS011;68213;40.528;44.712;2023-06-26T01:17:19;10.00;;;4.80;;
62679;SDS011;68213;40.528;44.712;2023-06-26T01:18:21;11.57;;;4.90;;
62679;SDS011;68213;40.528;44.712;2023-06-26T01:19:26;15.88;;;5.60;;
62679;SDS011;68213;40.528;44.712;2023-06-26T01:20:32;12.40;;;4.72;;
62679;SDS011;68213;40.528;44.712;2023-06-26T01:21:37;15.95;;;5.07;;
62679;SDS011;68213;40.528;44.712;2023-06-26T01:24:19;12.20;;;5.28;;
62679;SDS011;68213;40.528;44.712;2023-06-26T01:27:01;8.88;;;4.80;;
62679;SDS011;68213;40.528;44.712;2023-06-26T01:28:05;8.27;;;4.70;;
62679;SDS011;68213;40.528;44.712;2023-06-26T01:29:06;9.55;;;4.80;;
62679;SDS011;68213;40.528;44.712;2023-06-26T01:30:10;10.75;;;5.50;;
62679;SDS011;68213;40.528;44.712;2023-06-26T01:31:12;9.20;;;4.78;;
62679;SDS011;68213;40.528;44.712;2023-06-26T01:32:14;9.38;;;4.85;;
62679;SDS011;68213;40.528;44.712;2023-06-26T01:33:15;11.02;;;5.35;;
62679;SDS011;68213;40.528;44.712;2023-06-26T01:34:16;10.57;;;4.55;;
62679;SDS011;68213;40.528;44.712;2023-06-26T01:35:18;10.13;;;5.22;;
62679;SDS011;68213;40.528;44.712;2023-06-26T01:36:19;11.50;;;5.05;;
62679;SDS011;68213;40.528;44.712;2023-06-26T01:37:20;9.98;;;4.95;;
62679;SDS011;68213;40.528;44.712;2023-06-26T01:38:20;13.40;;;4.80;;
62679;SDS011;68213;40.528;44.712;2023-06-26T01:39:24;10.27;;;4.90;;
62679;SDS011;68213;40.528;44.712;2023-06-26T01:40:25;13.77;;;5.28;;
62679;SDS011;68213;40.528;44.712;2023-06-26T01:41:25;8.13;;;5.07;;
62679;SDS011;68213;40.528;44.712;2023-06-26T01:42:26;10.05;;;5.35;;
62679;SDS011;68213;40.528;44.712;2023-06-26T01:44:53;12.23;;;5.30;;
62679;SDS011;68213;40.528;44.712;2023-06-26T01:46:00;6.68;;;4.80;;
62679;SDS011;68213;40.528;44.712;2023-06-26T01:47:06;7.30;;;4.90;;
62679;SDS011;68213;40.528;44.712;2023-06-26T01:48:07;8.43;;;5.07;;
62679;SDS011;68213;40.528;44.712;2023-06-26T01:49:16;8.77;;;4.50;;
62679;SDS011;68213;40.528;44.712;2023-06-26T01:50:38;10.63;;;5.05;;
62679;SDS011;68213;40.528;44.712;2023-06-26T01:51:42;7.40;;;5.50;;
62679;SDS011;68213;40.528;44.712;2023-06-26T01:54:06;13.95;;;5.82;;
62679;SDS011;68213;40.528;44.712;2023-06-26T01:56:20;13.15;;;6.07;;
62679;SDS011;68213;40.528;44.712;2023-06-26T01:57:23;10.07;;;5.20;;
62679;SDS011;68213;40.528;44.712;2023-06-26T01:58:26;10.20;;;5.68;;
62679;SDS011;68213;40.528;44.712;2023-06-26T01:59:28;7.80;;;5.05;;
62679;SDS011;68213;40.528;44.712;2023-06-26T02:00:32;9.23;;;5.47;;
62679;SDS011;68213;40.528;44.712;2023-06-26T02:01:34;6.85;;;5.05;;
62679;SDS011;68213;40.528;44.712;2023-06-26T02:02:35;7.07;;;5.38;;
62679;SDS011;68213;40.528;44.712;2023-06-26T02:03:36;8.85;;;5.28;;
62679;SDS011;68213;40.528;44.712;2023-06-26T02:04:37;9.48;;;5.65;;
62679;SDS011;68213;40.528;44.712;2023-06-26T02:05:39;10.07;;;5.47;;
62679;SDS011;68213;40.528;44.712;2023-06-26T02:06:40;7.68;;;5.40;;
62679;SDS011;68213;40.528;44.712;2023-06-26T02:07:41;12.18;;;5.30;;
62679;SDS011;68213;40.528;44.712;2023-06-26T02:08:42;8.38;;;5.25;;
62679;SDS011;68213;40.528;44.712;2023-06-26T02:09:42;10.68;;;5.03;;
62679;SDS011;68213;40.528;44.712;2023-06-26T02:10:43;8.38;;;4.90;;
62679;SDS011;68213;40.528;44.712;2023-06-26T02:11:44;9.15;;;5.10;;
62679;SDS011;68213;40.528;44.712;2023-06-26T02:12:45;9.70;;;5.18;;
62679;SDS011;68213;40.528;44.712;2023-06-26T02:13:46;14.13;;;5.25;;
62679;SDS011;68213;40.528;44.712;2023-06-26T02:14:46;10.60;;;5.35;;
62679;SDS011;68213;40.528;44.712;2023-06-26T02:15:47;12.43;;;5.50;;
62679;SDS011;68213;40.528;44.712;2023-06-26T02:16:48;13.98;;;5.78;;
62679;SDS011;68213;40.528;44.712;2023-06-26T02:17:49;12.23;;;5.35;;
62679;SDS011;68213;40.528;44.712;2023-06-26T02:18:50;12.65;;;5.18;;
62679;SDS011;68213;40.528;44.712;2023-06-26T02:20:13;8.50;;;4.95;;
62679;SDS011;68213;40.528;44.712;2023-06-26T02:21:14;11.82;;;5.00;;
62679;SDS011;68213;40.528;44.712;2023-06-26T02:22:15;37.13;;;7.50;;
62679;SDS011;68213;40.528;44.712;2023-06-26T02:23:17;18.25;;;6.13;;
62679;SDS011;68213;40.528;44.712;2023-06-26T02:24:17;22.85;;;6.72;;
62679;SDS011;68213;40.528;44.712;2023-06-26T02:25:18;21.70;;;6.45;;
62679;SDS011;68213;40.528;44.712;2023-06-26T02:26:22;27.25;;;6.53;;
62679;SDS011;68213;40.528;44.712;2023-06-26T02:27:24;10.38;;;5.50;;
62679;SDS011;68213;40.528;44.712;2023-06-26T02:28:26;13.82;;;5.55;;
62679;SDS011;68213;40.528;44.712;2023-06-26T02:29:27;19.58;;;6.10;;
62679;SDS011;68213;40.528;44.712;2023-06-26T02:30:28;13.13;;;5.68;;
62679;SDS011;68213;40.528;44.712;2023-06-26T02:31:29;16.38;;;5.53;;
62679;SDS011;68213;40.528;44.712;2023-06-26T02:32:29;14.23;;;5.60;;
62679;SDS011;68213;40.528;44.712;2023-06-26T02:33:31;16.02;;;5.45;;
62679;SDS011;68213;40.528;44.712;2023-06-26T02:34:32;21.67;;;6.00;;
62679;SDS011;68213;40.528;44.712;2023-06-26T02:35:33;18.50;;;6.00;;
62679;SDS011;68213;40.528;44.712;2023-06-26T02:36:34;14.82;;;5.80;;
62679;SDS011;68213;40.528;44.712;2023-06-26T02:37:37;26.05;;;6.18;;
62679;SDS011;68213;40.528;44.712;2023-06-26T02:38:38;24.20;;;6.55;;
62679;SDS011;68213;40.528;44.712;2023-06-26T02:39:38;25.00;;;5.95;;
62679;SDS011;68213;40.528;44.712;2023-06-26T02:40:39;24.88;;;6.43;;
62679;SDS011;68213;40.528;44.712;2023-06-26T02:41:40;20.33;;;6.10;;
62679;SDS011;68213;40.528;44.712;2023-06-26T02:42:40;24.30;;;6.57;;
62679;SDS011;68213;40.528;44.712;2023-06-26T02:43:41;33.10;;;7.05;;
62679;SDS011;68213;40.528;44.712;2023-06-26T02:44:42;34.22;;;7.40;;
62679;SDS011;68213;40.528;44.712;2023-06-26T02:45:45;26.35;;;6.40;;
62679;SDS011;68213;40.528;44.712;2023-06-26T02:46:47;22.48;;;7.22;;
62679;SDS011;68213;40.528;44.712;2023-06-26T02:47:48;23.17;;;6.13;;
62679;SDS011;68213;40.528;44.712;2023-06-26T02:48:49;25.38;;;6.90;;
62679;SDS011;68213;40.528;44.712;2023-06-26T02:49:50;22.10;;;5.90;;
62679;SDS011;68213;40.528;44.712;2023-06-26T02:50:50;31.98;;;7.15;;
62679;SDS011;68213;40.528;44.712;2023-06-26T02:51:51;20.70;;;6.80;;
62679;SDS011;68213;40.528;44.712;2023-06-26T02:52:52;26.92;;;5.90;;
62679;SDS011;68213;40.528;44.712;2023-06-26T02:53:53;22.85;;;6.75;;
62679;SDS011;68213;40.528;44.712;2023-06-26T02:54:53;19.27;;;6.03;;
62679;SDS011;68213;40.528;44.712;2023-06-26T02:55:54;17.92;;;5.90;;
62679;SDS011;68213;40.528;44.712;2023-06-26T02:56:55;25.10;;;5.82;;
62679;SDS011;68213;40.528;44.712;2023-06-26T02:57:56;26.63;;;6.38;;
62679;SDS011;68213;40.528;44.712;2023-06-26T02:58:56;20.70;;;6.30;;
62679;SDS011;68213;40.528;44.712;2023-06-26T03:00:00;14.40;;;6.03;;
62679;SDS011;68213;40.528;44.712;2023-06-26T03:01:01;21.70;;;5.30;;
62679;SDS011;68213;40.528;44.712;2023-06-26T03:02:01;22.38;;;5.80;;
62679;SDS011;68213;40.528;44.712;2023-06-26T03:03:02;24.70;;;6.22;;
62679;SDS011;68213;40.528;44.712;2023-06-26T03:04:04;23.35;;;6.25;;
62679;SDS011;68213;40.528;44.712;2023-06-26T03:05:05;15.70;;;5.18;;
62679;SDS011;68213;40.528;44.712;2023-06-26T03:06:06;11.65;;;5.57;;
62679;SDS011;68213;40.528;44.712;2023-06-26T03:07:10;14.48;;;5.75;;
62679;SDS011;68213;40.528;44.712;2023-06-26T03:08:11;14.77;;;5.35;;
62679;SDS011;68213;40.528;44.712;2023-06-26T03:09:12;14.15;;;5.50;;
62679;SDS011;68213;40.528;44.712;2023-06-26T03:10:12;11.93;;;5.05;;
62679;SDS011;68213;40.528;44.712;2023-06-26T03:11:13;14.80;;;5.50;;
62679;SDS011;68213;40.528;44.712;2023-06-26T03:12:14;13.80;;;5.55;;
62679;SDS011;68213;40.528;44.712;2023-06-26T03:13:14;11.98;;;5.65;;
62679;SDS011;68213;40.528;44.712;2023-06-26T03:14:15;9.02;;;5.53;;
62679;SDS011;68213;40.528;44.712;2023-06-26T03:15:16;10.77;;;5.07;;
62679;SDS011;68213;40.528;44.712;2023-06-26T03:16:17;8.52;;;5.10;;
62679;SDS011;68213;40.528;44.712;2023-06-26T03:17:18;7.07;;;4.90;;
62679;SDS011;68213;40.528;44.712;2023-06-26T03:18:18;16.55;;;5.95;;
62679;SDS011;68213;40.528;44.712;2023-06-26T03:19:19;9.23;;;5.30;;
62679;SDS011;68213;40.528;44.712;2023-06-26T03:20:20;8.27;;;5.05;;
62679;SDS011;68213;40.528;44.712;2023-06-26T03:21:21;10.38;;;4.93;;
62679;SDS011;68213;40.528;44.712;2023-06-26T03:22:21;16.30;;;5.05;;
62679;SDS011;68213;40.528;44.712;2023-06-26T03:23:22;18.70;;;5.65;;
62679;SDS011;68213;40.528;44.712;2023-06-26T03:24:25;13.55;;;5.22;;
62679;SDS011;68213;40.528;44.712;2023-06-26T03:25:26;12.93;;;5.13;;
62679;SDS011;68213;40.528;44.712;2023-06-26T03:26:27;12.52;;;5.05;;
62679;SDS011;68213;40.528;44.712;2023-06-26T03:27:28;20.40;;;5.38;;
62679;SDS011;68213;40.528;44.712;2023-06-26T03:28:29;15.95;;;5.03;;
62679;SDS011;68213;40.528;44.712;2023-06-26T03:29:33;13.80;;;4.68;;
62679;SDS011;68213;40.528;44.712;2023-06-26T03:30:34;15.52;;;5.38;;
62679;SDS011;68213;40.528;44.712;2023-06-26T03:31:35;17.40;;;5.32;;
62679;SDS011;68213;40.528;44.712;2023-06-26T03:32:35;15.63;;;4.85;;
62679;SDS011;68213;40.528;44.712;2023-06-26T03:33:37;12.68;;;5.53;;
62679;SDS011;68213;40.528;44.712;2023-06-26T03:34:38;16.77;;;5.20;;
62679;SDS011;68213;40.528;44.712;2023-06-26T03:35:38;8.93;;;5.03;;
62679;SDS011;68213;40.528;44.712;2023-06-26T03:36:39;9.98;;;5.32;;
62679;SDS011;68213;40.528;44.712;2023-06-26T03:37:40;11.20;;;5.20;;
62679;SDS011;68213;40.528;44.712;2023-06-26T03:38:41;13.25;;;5.20;;
62679;SDS011;68213;40.528;44.712;2023-06-26T03:39:41;7.07;;;4.93;;
62679;SDS011;68213;40.528;44.712;2023-06-26T03:40:42;11.73;;;5.40;;
62679;SDS011;68213;40.528;44.712;2023-06-26T03:41:43;12.02;;;5.22;;
62679;SDS011;68213;40.528;44.712;2023-06-26T03:42:44;8.48;;;4.85;;
62679;SDS011;68213;40.528;44.712;2023-06-26T03:43:47;11.55;;;5.15;;
62679;SDS011;68213;40.528;44.712;2023-06-26T03:44:48;8.30;;;5.07;;
62679;SDS011;68213;40.528;44.712;2023-06-26T03:45:48;17.98;;;4.95;;
62679;SDS011;68213;40.528;44.712;2023-06-26T03:46:49;9.93;;;4.90;;
62679;SDS011;68213;40.528;44.712;2023-06-26T03:47:50;9.73;;;5.03;;
62679;SDS011;68213;40.528;44.712;2023-06-26T03:48:50;13.55;;;5.22;;
62679;SDS011;68213;40.528;44.712;2023-06-26T03:49:51;17.00;;;5.10;;
62679;SDS011;68213;40.528;44.712;2023-06-26T03:50:52;9.45;;;4.55;;
62679;SDS011;68213;40.528;44.712;2023-06-26T03:51:55;8.15;;;4.90;;
62679;SDS011;68213;40.528;44.712;2023-06-26T03:52:55;9.52;;;5.20;;
62679;SDS011;68213;40.528;44.712;2023-06-26T03:53:56;7.10;;;4.60;;
62679;SDS011;68213;40.528;44.712;2023-06-26T03:54:57;10.23;;;4.28;;
62679;SDS011;68213;40.528;44.712;2023-06-26T03:55:58;8.05;;;4.65;;
62679;SDS011;68213;40.528;44.712;2023-06-26T03:56:59;6.07;;;4.68;;
62679;SDS011;68213;40.528;44.712;2023-06-26T03:58:00;5.38;;;4.30;;
62679;SDS011;68213;40.528;44.712;2023-06-26T03:59:00;8.90;;;4.57;;
62679;SDS011;68213;40.528;44.712;2023-06-26T04:00:02;5.78;;;4.68;;
62679;SDS011;68213;40.528;44.712;2023-06-26T04:01:08;7.40;;;4.70;;
62679;SDS011;68213;40.528;44.712;2023-06-26T04:02:09;7.47;;;4.45;;
62679;SDS011;68213;40.528;44.712;2023-06-26T04:03:09;9.85;;;4.75;;
62679;SDS011;68213;40.528;44.712;2023-06-26T04:04:11;8.55;;;4.43;;
62679;SDS011;68213;40.528;44.712;2023-06-26T04:05:12;10.85;;;5.05;;
62679;SDS011;68213;40.528;44.712;2023-06-26T04:06:12;8.73;;;4.50;;
62679;SDS011;68213;40.528;44.712;2023-06-26T04:07:13;5.68;;;4.40;;
62679;SDS011;68213;40.528;44.712;2023-06-26T04:08:14;8.50;;;4.75;;
62679;SDS011;68213;40.528;44.712;2023-06-26T04:09:14;6.95;;;4.38;;
62679;SDS011;68213;40.528;44.712;2023-06-26T04:10:15;7.93;;;4.25;;
62679;SDS011;68213;40.528;44.712;2023-06-26T04:11:16;10.43;;;5.32;;
62679;SDS011;68213;40.528;44.712;2023-06-26T04:12:17;9.68;;;4.50;;
62679;SDS011;68213;40.528;44.712;2023-06-26T04:13:18;6.15;;;4.30;;
62679;SDS011;68213;40.528;44.712;2023-06-26T04:14:18;6.93;;;4.30;;
62679;SDS011;68213;40.528;44.712;2023-06-26T04:15:19;6.13;;;4.43;;
62679;SDS011;68213;40.528;44.712;2023-06-26T04:16:21;8.20;;;4.25;;
62679;SDS011;68213;40.528;44.712;2023-06-26T04:17:25;6.57;;;4.45;;
62679;SDS011;68213;40.528;44.712;2023-06-26T04:18:26;6.70;;;4.43;;
62679;SDS011;68213;40.528;44.712;2023-06-26T04:19:27;6.50;;;4.60;;
62679;SDS011;68213;40.528;44.712;2023-06-26T04:20:28;5.57;;;4.03;;
62679;SDS011;68213;40.528;44.712;2023-06-26T04:21:28;9.45;;;4.47;;
62679;SDS011;68213;40.528;44.712;2023-06-26T04:22:31;6.28;;;4.90;;
62679;SDS011;68213;40.528;44.712;2023-06-26T04:23:33;7.40;;;4.50;;
62679;SDS011;68213;40.528;44.712;2023-06-26T04:24:34;6.75;;;4.85;;
62679;SDS011;68213;40.528;44.712;2023-06-26T04:25:35;6.85;;;4.95;;
62679;SDS011;68213;40.528;44.712;2023-06-26T04:26:37;6.72;;;5.20;;
62679;SDS011;68213;40.528;44.712;2023-06-26T04:27:41;9.60;;;5.13;;
62679;SDS011;68213;40.528;44.712;2023-06-26T04:28:42;7.18;;;4.63;;
62679;SDS011;68213;40.528;44.712;2023-06-26T04:29:43;6.80;;;4.55;;
62679;SDS011;68213;40.528;44.712;2023-06-26T04:30:43;5.53;;;4.20;;
62679;SDS011;68213;40.528;44.712;2023-06-26T04:31:44;10.30;;;4.75;;
62679;SDS011;68213;40.528;44.712;2023-06-26T04:32:48;9.57;;;5.35;;
62679;SDS011;68213;40.528;44.712;2023-06-26T04:33:48;7.18;;;5.07;;
62679;SDS011;68213;40.528;44.712;2023-06-26T04:34:54;6.05;;;4.70;;
62679;SDS011;68213;40.528;44.712;2023-06-26T04:35:55;9.18;;;4.90;;
62679;SDS011;68213;40.528;44.712;2023-06-26T04:36:56;8.13;;;4.65;;
62679;SDS011;68213;40.528;44.712;2023-06-26T04:37:57;5.70;;;4.55;;
62679;SDS011;68213;40.528;44.712;2023-06-26T04:38:58;7.00;;;4.80;;
62679;SDS011;68213;40.528;44.712;2023-06-26T04:39:59;8.68;;;4.88;;
62679;SDS011;68213;40.528;44.712;2023-06-26T04:41:00;8.18;;;4.80;;
62679;SDS011;68213;40.528;44.712;2023-06-26T04:42:02;6.53;;;5.10;;
62679;SDS011;68213;40.528;44.712;2023-06-26T04:43:03;8.43;;;4.97;;
62679;SDS011;68213;40.528;44.712;2023-06-26T04:44:04;5.82;;;4.70;;
62679;SDS011;68213;40.528;44.712;2023-06-26T04:45:04;11.63;;;4.72;;
62679;SDS011;68213;40.528;44.712;2023-06-26T04:46:05;5.90;;;4.72;;
62679;SDS011;68213;40.528;44.712;2023-06-26T04:47:07;7.40;;;4.93;;
62679;SDS011;68213;40.528;44.712;2023-06-26T04:48:08;8.35;;;5.10;;
62679;SDS011;68213;40.528;44.712;2023-06-26T04:49:09;9.00;;;5.00;;
62679;SDS011;68213;40.528;44.712;2023-06-26T04:50:10;7.28;;;4.78;;
62679;SDS011;68213;40.528;44.712;2023-06-26T04:51:11;5.10;;;4.40;;
62679;SDS011;68213;40.528;44.712;2023-06-26T04:52:12;6.63;;;4.82;;
62679;SDS011;68213;40.528;44.712;2023-06-26T04:53:13;11.00;;;5.28;;
62679;SDS011;68213;40.528;44.712;2023-06-26T04:54:14;7.60;;;4.72;;
62679;SDS011;68213;40.528;44.712;2023-06-26T04:55:15;7.60;;;4.32;;
62679;SDS011;68213;40.528;44.712;2023-06-26T04:56:16;6.43;;;4.68;;
62679;SDS011;68213;40.528;44.712;2023-06-26T04:57:16;8.52;;;4.60;;
62679;SDS011;68213;40.528;44.712;2023-06-26T04:58:18;5.32;;;4.57;;
62679;SDS011;68213;40.528;44.712;2023-06-26T04:59:19;9.38;;;4.47;;
62679;SDS011;68213;40.528;44.712;2023-06-26T05:00:20;6.05;;;4.75;;
62679;SDS011;68213;40.528;44.712;2023-06-26T05:01:21;6.00;;;4.40;;
62679;SDS011;68213;40.528;44.712;2023-06-26T05:02:21;6.20;;;4.97;;
62679;SDS011;68213;40.528;44.712;2023-06-26T05:03:22;5.45;;;4.90;;
62679;SDS011;68213;40.528;44.712;2023-06-26T05:04:25;6.50;;;4.68;;
62679;SDS011;68213;40.528;44.712;2023-06-26T05:05:29;8.00;;;4.72;;
62679;SDS011;68213;40.528;44.712;2023-06-26T05:06:29;7.63;;;4.55;;
62679;SDS011;68213;40.528;44.712;2023-06-26T05:07:30;5.85;;;4.55;;
62679;SDS011;68213;40.528;44.712;2023-06-26T05:08:31;6.13;;;4.68;;
62679;SDS011;68213;40.528;44.712;2023-06-26T05:09:32;6.22;;;4.72;;
62679;SDS011;68213;40.528;44.712;2023-06-26T05:10:32;6.30;;;4.25;;
62679;SDS011;68213;40.528;44.712;2023-06-26T05:11:36;10.00;;;4.40;;
62679;SDS011;68213;40.528;44.712;2023-06-26T05:12:37;7.22;;;4.10;;
62679;SDS011;68213;40.528;44.712;2023-06-26T05:13:38;9.80;;;4.75;;
62679;SDS011;68213;40.528;44.712;2023-06-26T05:14:38;9.82;;;4.93;;
62679;SDS011;68213;40.528;44.712;2023-06-26T05:15:42;8.50;;;5.20;;
62679;SDS011;68213;40.528;44.712;2023-06-26T05:16:43;7.72;;;4.75;;
62679;SDS011;68213;40.528;44.712;2023-06-26T05:17:43;8.10;;;4.60;;
62679;SDS011;68213;40.528;44.712;2023-06-26T05:18:44;7.50;;;4.95;;
62679;SDS011;68213;40.528;44.712;2023-06-26T05:19:45;6.65;;;4.90;;
62679;SDS011;68213;40.528;44.712;2023-06-26T05:20:46;11.23;;;5.28;;
62679;SDS011;68213;40.528;44.712;2023-06-26T05:21:47;10.68;;;5.28;;
62679;SDS011;68213;40.528;44.712;2023-06-26T05:22:48;11.40;;;4.57;;
62679;SDS011;68213;40.528;44.712;2023-06-26T05:23:50;7.00;;;5.10;;
62679;SDS011;68213;40.528;44.712;2023-06-26T05:24:54;7.95;;;4.80;;
62679;SDS011;68213;40.528;44.712;2023-06-26T05:25:56;8.55;;;4.80;;
62679;SDS011;68213;40.528;44.712;2023-06-26T05:26:57;11.45;;;4.88;;
62679;SDS011;68213;40.528;44.712;2023-06-26T05:27:58;6.47;;;5.43;;
62679;SDS011;68213;40.528;44.712;2023-06-26T05:28:59;7.22;;;4.95;;
62679;SDS011;68213;40.528;44.712;2023-06-26T05:30:00;6.30;;;5.05;;
62679;SDS011;68213;40.528;44.712;2023-06-26T05:31:04;9.30;;;4.90;;
62679;SDS011;68213;40.528;44.712;2023-06-26T05:32:05;6.80;;;5.05;;
62679;SDS011;68213;40.528;44.712;2023-06-26T05:33:08;6.50;;;4.80;;
62679;SDS011;68213;40.528;44.712;2023-06-26T05:34:11;13.52;;;7.43;;
62679;SDS011;68213;40.528;44.712;2023-06-26T05:35:14;10.40;;;4.93;;
62679;SDS011;68213;40.528;44.712;2023-06-26T05:36:17;8.48;;;4.80;;
62679;SDS011;68213;40.528;44.712;2023-06-26T05:37:20;8.50;;;5.10;;
62679;SDS011;68213;40.528;44.712;2023-06-26T05:38:22;6.78;;;4.70;;
62679;SDS011;68213;40.528;44.712;2023-06-26T05:39:23;6.43;;;4.95;;
62679;SDS011;68213;40.528;44.712;2023-06-26T05:40:24;8.43;;;4.88;;
62679;SDS011;68213;40.528;44.712;2023-06-26T05:41:27;6.22;;;4.50;;
62679;SDS011;68213;40.528;44.712;2023-06-26T05:42:27;7.38;;;5.03;;
62679;SDS011;68213;40.528;44.712;2023-06-26T05:43:28;9.93;;;4.50;;
62679;SDS011;68213;40.528;44.712;2023-06-26T05:44:29;6.85;;;4.90;;
62679;SDS011;68213;40.528;44.712;2023-06-26T05:45:30;6.00;;;4.53;;
62679;SDS011;68213;40.528;44.712;2023-06-26T05:46:31;6.18;;;4.18;;
62679;SDS011;68213;40.528;44.712;2023-06-26T05:47:31;7.20;;;4.60;;
62679;SDS011;68213;40.528;44.712;2023-06-26T05:48:32;6.93;;;4.80;;
62679;SDS011;68213;40.528;44.712;2023-06-26T05:49:33;6.80;;;4.43;;
62679;SDS011;68213;40.528;44.712;2023-06-26T05:50:34;7.90;;;4.30;;
62679;SDS011;68213;40.528;44.712;2023-06-26T05:51:35;8.60;;;4.85;;
62679;SDS011;68213;40.528;44.712;2023-06-26T05:52:36;9.65;;;4.50;;
62679;SDS011;68213;40.528;44.712;2023-06-26T05:53:39;7.28;;;4.10;;
62679;SDS011;68213;40.528;44.712;2023-06-26T05:54:40;8.00;;;4.50;;
62679;SDS011;68213;40.528;44.712;2023-06-26T05:55:41;9.40;;;4.43;;
62679;SDS011;68213;40.528;44.712;2023-06-26T05:56:43;6.90;;;4.70;;
62679;SDS011;68213;40.528;44.712;2023-06-26T05:57:44;6.75;;;4.47;;
62679;SDS011;68213;40.528;44.712;2023-06-26T05:58:46;8.48;;;4.57;;
62679;SDS011;68213;40.528;44.712;2023-06-26T05:59:47;8.00;;;4.68;;
62679;SDS011;68213;40.528;44.712;2023-06-26T06:00:49;10.27;;;5.18;;
62679;SDS011;68213;40.528;44.712;2023-06-26T06:01:49;9.85;;;4.63;;
62679;SDS011;68213;40.528;44.712;2023-06-26T06:02:50;9.85;;;5.20;;
62679;SDS011;68213;40.528;44.712;2023-06-26T06:03:54;7.22;;;5.18;;
62679;SDS011;68213;40.528;44.712;2023-06-26T06:04:55;6.53;;;5.20;;
62679;SDS011;68213;40.528;44.712;2023-06-26T06:05:55;6.45;;;4.82;;
62679;SDS011;68213;40.528;44.712;2023-06-26T06:06:56;10.40;;;4.80;;
62679;SDS011;68213;40.528;44.712;2023-06-26T06:07:57;10.50;;;4.43;;
62679;SDS011;68213;40.528;44.712;2023-06-26T06:08:57;11.77;;;4.70;;
62679;SDS011;68213;40.528;44.712;2023-06-26T06:09:58;6.32;;;4.43;;